Terminal Aerodrome Forecast
Issued by NWS Corpus Christi, TX

Current Version | Previous Version | Text Only | Print | Product List | Glossary On
Versions: 1 2 3 4 5 6 7 8 9 10 11 12 13 14 15 16 17 18 19 20
535
FTUS44 KCRP 292341
TAFVCT
TAF
KVCT 292341Z 3000/3024 06011KT P6SM FEW030 SCT045 BKN250
     FM300500 03005KT P6SM FEW020 SCT250
      TEMPO 3008/3012 4SM BR BKN018
     FM302200 10010KT P6SM SCT040=

USA.gov is the U.S. government's official web portal to all federal, state and local government web resources and services.